KCLW

Clearwater Airpark

Clearwater, Florida, USA
METAR KCLW 230955Z AUTO 11004KT 10SM CLR 20/19 A3032 RMK AO2
Observed Flight Rules
Feb-23 @ 09:55 UTC (35 minutes ago) Visual Flight Rules
Wind Visibility Clouds
110° at 4 knots 10 miles
  • Clear skies
Temperatures Readings
Current 20°C / 68°F
Dewpoint 19°C / 66°F
Humidity 94%
Altimeter 30.32" Hg
Pressure 1027 hPa
Elevation 22
METAR KCLW 230955Z AUTO 11004KT 10SM CLR 20/19 A3032 RMK AO2
Observed Flight Rules
Feb-23 @ 09:55 UTC
(35 minutes ago)
VFR
Wind Visibility
110° at 4 knots 10 miles
Clouds
  • Clear skies
Temperature Dewpoint
20°C / 68°F 19°C / 66°F
Humidity Altimeter Pressure
94% 30.32" Hg 1027 hPa